Time,TemperatureF,DewpointF,PressureIn,WindDirection,WindDirectionDegrees,WindSpeedMPH,WindSpeedGustMPH,Humidity,HourlyPrecipIn,Conditions,Clouds,dailyrainin,SoftwareType,DateUTC
2015-02-27 00:03:00,29.1,28.9,30.06,East,90,5.8,5.8,99,0.00,CLR,,0.00,WeatherDisplay:10.37,2015-02-27 06:03:00,
2015-02-27 00:08:00,29.1,28.9,30.06,ESE,112,5.3,5.3,99,0.00,CLR,,0.00,WeatherDisplay:10.37,2015-02-27 06:08:00,
2015-02-27 00:13:00,29.1,28.9,30.06,East,90,2.7,2.7,99,0.00,CLR,,0.00,WeatherDisplay:10.37,2015-02-27 06:13:00,
2015-02-27 00:18:00,28.9,28.7,30.06,East,90,5.8,5.8,99,0.00,CLR,,0.00,WeatherDisplay:10.37,2015-02-27 06:18:00,
2015-02-27 00:23:00,29.1,28.9,30.06,East,90,8.1,8.1,99,0.00,CLR,,0.00,WeatherDisplay:10.37,2015-02-27 06:23:00,
2015-02-27 00:28:00,29.1,28.9,30.06,East,90,6.9,6.9,99,0.00,CLR,,0.00,WeatherDisplay:10.37,2015-02-27 06:28:00,
2015-02-27 00:33:00,29.1,28.9,30.06,East,90,5.8,5.8,99,0.00,CLR,,0.00,WeatherDisplay:10.37,2015-02-27 06:33:00,
2015-02-27 00:38:00,29.1,28.9,30.06,ESE,112,5.8,5.8,99,0.00,CLR,,0.00,WeatherDisplay:10.37,2015-02-27 06:38:00,
2015-02-27 00:44:00,29.1,28.9,30.06,ESE,112,8.3,8.3,99,0.00,CLR,,0.00,WeatherDisplay:10.37,2015-02-27 06:44:00,
2015-02-27 00:49:00,29.1,28.9,30.06,East,90,5.8,5.8,99,0.00,CLR,,0.00,WeatherDisplay:10.37,2015-02-27 06:49:00,
2015-02-27 00:54:00,29.1,28.9,30.06,East,90,2.7,2.7,99,0.00,CLR,,0.00,WeatherDisplay:10.37,2015-02-27 06:54:00,
2015-02-27 00:59:00,29.1,28.9,30.06,East,90,4.7,4.7,99,0.00,CLR,,0.00,WeatherDisplay:10.37,2015-02-27 06:59:00,
2015-02-27 01:04:00,29.1,28.9,30.06,East,90,5.8,5.8,99,0.00,CLR,,0.00,WeatherDisplay:10.37,2015-02-27 07:04:00,
2015-02-27 01:09:00,29.1,28.9,30.06,ESE,112,9.2,9.2,99,0.00,CLR,,0.00,WeatherDisplay:10.37,2015-02-27 07:09:00,
2015-02-27 01:14:00,29.1,28.9,30.06,ESE,112,6.9,6.9,99,0.00,CLR,,0.00,WeatherDisplay:10.37,2015-02-27 07:14:00,
2015-02-27 01:19:00,29.1,28.9,30.06,East,90,4.6,4.6,99,0.00,CLR,,0.00,WeatherDisplay:10.37,2015-02-27 07:19:00,
2015-02-27 01:24:00,29.1,28.9,30.06,East,90,8.3,8.3,99,0.00,CLR,,0.00,WeatherDisplay:10.37,2015-02-27 07:24:00,
2015-02-27 01:29:00,29.1,28.9,30.06,East,90,5.8,5.8,99,0.00,CLR,,0.00,WeatherDisplay:10.37,2015-02-27 07:29:00,
2015-02-27 01:34:00,29.1,28.9,30.06,East,90,6.9,6.9,99,0.00,CLR,,0.00,WeatherDisplay:10.37,2015-02-27 07:34:00,
2015-02-27 01:39:00,29.1,28.9,30.06,ENE,68,5.8,5.8,99,0.00,CLR,,0.00,WeatherDisplay:10.37,2015-02-27 07:39:00,
2015-02-27 01:44:00,28.9,28.7,30.06,ENE,68,6.9,6.9,99,0.00,CLR,,0.00,WeatherDisplay:10.37,2015-02-27 07:44:00,
2015-02-27 01:49:00,28.9,28.7,30.06,ENE,68,6.9,6.9,99,0.00,CLR,,0.00,WeatherDisplay:10.37,2015-02-27 07:49:00,
2015-02-27 01:54:00,28.8,28.6,30.06,ENE,68,8.1,8.1,99,0.00,CLR,,0.00,WeatherDisplay:10.37,2015-02-27 07:54:00,
2015-02-27 01:59:00,28.8,28.6,30.06,ENE,68,5.8,5.8,99,0.00,CLR,,0.00,WeatherDisplay:10.37,2015-02-27 07:59:00,
2015-02-27 02:04:00,28.8,28.6,30.06,ENE,68,5.8,5.8,99,0.00,CLR,,0.00,WeatherDisplay:10.37,2015-02-27 08:04:00,
2015-02-27 02:09:00,28.6,28.4,30.06,ENE,68,6.3,6.3,99,0.00,CLR,,0.00,WeatherDisplay:10.37,2015-02-27 08:09:00,
2015-02-27 02:14:00,30.9,30.7,30.06,ENE,68,7.3,7.3,99,0.00,CLR,,0.00,WeatherDisplay:10.37,2015-02-27 08:14:00,
2015-02-27 02:19:00,28.4,28.2,30.06,ENE,68,5.8,5.8,99,0.00,CLR,,0.00,WeatherDisplay:10.37,2015-02-27 08:19:00,
2015-02-27 02:24:00,28.6,28.4,30.06,East,90,6.9,6.9,99,0.00,CLR,,0.00,WeatherDisplay:10.37,2015-02-27 08:24:00,
2015-02-27 02:29:00,28.6,28.4,30.06,East,90,4.7,4.7,99,0.00,CLR,,0.00,WeatherDisplay:10.37,2015-02-27 08:29:00,
2015-02-27 02:34:00,28.4,28.2,30.06,East,90,5.3,5.3,99,0.00,CLR,,0.00,WeatherDisplay:10.37,2015-02-27 08:34:00,
2015-02-27 02:39:00,28.4,28.2,30.06,East,90,6.8,6.8,99,0.00,CLR,,0.00,WeatherDisplay:10.37,2015-02-27 08:39:00,
2015-02-27 02:44:00,28.2,28.0,30.06,East,90,6.9,6.9,99,0.00,CLR,,0.00,WeatherDisplay:10.37,2015-02-27 08:44:00,
2015-02-27 02:49:00,28.2,28.0,30.06,East,90,5.8,5.8,99,0.00,CLR,,0.00,WeatherDisplay:10.37,2015-02-27 08:49:00,
2015-02-27 02:54:00,28.0,27.8,30.06,East,90,4.7,4.7,99,0.00,CLR,,0.00,WeatherDisplay:10.37,2015-02-27 08:54:00,
2015-02-27 02:59:00,27.9,27.7,30.06,East,90,5.8,5.8,99,0.00,CLR,,0.00,WeatherDisplay:10.37,2015-02-27 08:59:00,
2015-02-27 03:04:00,27.7,27.5,30.06,East,90,5.8,5.8,99,0.00,CLR,,0.00,WeatherDisplay:10.37,2015-02-27 09:04:00,
2015-02-27 03:09:00,27.5,27.3,30.06,East,90,5.8,5.8,99,0.00,CLR,,0.00,WeatherDisplay:10.37,2015-02-27 09:09:00,
2015-02-27 03:14:00,27.3,27.1,30.06,East,90,5.8,5.8,99,0.00,CLR,,0.00,WeatherDisplay:10.37,2015-02-27 09:14:00,
2015-02-27 03:19:00,27.1,26.9,30.06,East,90,5.8,5.8,99,0.00,CLR,,0.00,WeatherDisplay:10.37,2015-02-27 09:19:00,
2015-02-27 03:24:00,27.0,26.8,30.06,East,90,4.6,4.6,99,0.00,CLR,,0.00,WeatherDisplay:10.37,2015-02-27 09:24:00,
2015-02-27 03:29:00,26.8,26.6,30.06,East,90,4.6,4.6,99,0.00,CLR,,0.00,WeatherDisplay:10.37,2015-02-27 09:29:00,
2015-02-27 03:34:00,26.6,26.4,30.06,East,90,4.6,4.6,99,0.00,CLR,,0.00,WeatherDisplay:10.37,2015-02-27 09:34:00,
2015-02-27 03:39:00,26.6,26.4,30.06,East,90,3.5,3.5,99,0.00,CLR,,0.00,WeatherDisplay:10.37,2015-02-27 09:39:00,
2015-02-27 03:44:00,26.6,26.4,30.06,East,90,5.8,5.8,99,0.00,CLR,,0.00,WeatherDisplay:10.37,2015-02-27 09:44:00,
2015-02-27 03:49:00,26.4,26.2,30.06,East,90,3.5,3.5,99,0.00,CLR,,0.00,WeatherDisplay:10.37,2015-02-27 09:49:00,
2015-02-27 03:54:00,26.4,26.2,30.06,East,90,5.8,5.8,99,0.00,CLR,,0.00,WeatherDisplay:10.37,2015-02-27 09:54:00,
2015-02-27 03:59:00,26.2,26.0,30.06,East,90,5.8,5.8,99,0.00,CLR,,0.00,WeatherDisplay:10.37,2015-02-27 09:59:00,
2015-02-27 04:04:00,25.9,25.7,30.06,East,90,6.9,6.9,99,0.00,CLR,,0.00,WeatherDisplay:10.37,2015-02-27 10:04:00,
2015-02-27 04:09:00,26.1,25.9,30.06,East,90,3.5,3.5,99,0.00,CLR,,0.00,WeatherDisplay:10.37,2015-02-27 10:09:00,
2015-02-27 04:14:00,26.1,25.9,30.06,East,90,2.3,2.3,99,0.00,CLR,,0.00,WeatherDisplay:10.37,2015-02-27 10:14:00,
2015-02-27 04:19:00,25.9,25.7,30.06,East,90,4.7,4.7,99,0.00,CLR,,0.00,WeatherDisplay:10.37,2015-02-27 10:19:00,
2015-02-27 04:24:00,25.9,25.7,30.06,East,90,5.8,5.8,99,0.00,CLR,,0.00,WeatherDisplay:10.37,2015-02-27 10:24:00,
2015-02-27 04:29:00,25.9,25.7,30.06,East,90,5.8,5.8,99,0.00,CLR,,0.00,WeatherDisplay:10.37,2015-02-27 10:29:00,
2015-02-27 04:34:00,25.7,25.5,30.06,East,90,3.5,3.5,99,0.00,CLR,,0.00,WeatherDisplay:10.37,2015-02-27 10:34:00,
2015-02-27 04:39:00,25.7,25.5,30.06,East,90,3.5,3.5,99,0.00,CLR,,0.00,WeatherDisplay:10.37,2015-02-27 10:39:00,
2015-02-27 04:44:00,25.5,25.3,30.06,East,90,5.8,5.8,99,0.00,CLR,,0.00,WeatherDisplay:10.37,2015-02-27 10:44:00,
2015-02-27 04:49:00,25.5,25.3,30.06,East,90,4.7,4.7,99,0.00,CLR,,0.00,WeatherDisplay:10.37,2015-02-27 10:49:00,
2015-02-27 04:54:00,25.5,25.3,30.06,East,90,3.5,3.5,99,0.00,CLR,,0.00,WeatherDisplay:10.37,2015-02-27 10:54:00,
2015-02-27 04:59:00,25.3,25.1,30.06,East,90,5.8,5.8,99,0.00,CLR,,0.00,WeatherDisplay:10.37,2015-02-27 10:59:00,
2015-02-27 05:04:00,25.3,25.1,30.06,East,90,3.5,3.5,99,0.00,CLR,,0.00,WeatherDisplay:10.37,2015-02-27 11:04:00,
2015-02-27 05:09:00,25.2,25.0,30.06,East,90,3.5,3.5,99,0.00,CLR,,0.00,WeatherDisplay:10.37,2015-02-27 11:09:00,
2015-02-27 05:14:00,25.2,25.0,30.06,East,90,2.2,2.2,99,0.00,CLR,,0.00,WeatherDisplay:10.37,2015-02-27 11:14:00,
2015-02-27 05:19:00,25.3,25.1,30.06,East,90,5.8,5.8,99,0.00,CLR,,0.00,WeatherDisplay:10.37,2015-02-27 11:19:00,
2015-02-27 05:24:00,25.7,25.5,30.06,East,90,3.7,4.2,99,0.00,CLR,,0.00,WeatherDisplay:10.37,2015-02-27 11:24:00,
2015-02-27 05:29:00,25.7,25.5,30.06,East,90,5.8,5.8,99,0.00,CLR,,0.00,WeatherDisplay:10.37,2015-02-27 11:29:00,
2015-02-27 05:34:00,25.9,25.7,30.06,East,90,5.8,5.8,99,0.00,CLR,,0.00,WeatherDisplay:10.37,2015-02-27 11:34:00,
2015-02-27 05:39:00,25.9,25.7,30.06,East,90,4.6,4.6,99,0.00,CLR,,0.00,WeatherDisplay:10.37,2015-02-27 11:39:00,
2015-02-27 05:44:00,25.9,25.7,30.06,East,90,3.5,3.5,99,0.00,CLR,,0.00,WeatherDisplay:10.37,2015-02-27 11:44:00,
2015-02-27 05:49:00,25.9,25.7,30.06,East,90,5.8,5.8,99,0.00,CLR,,0.00,WeatherDisplay:10.37,2015-02-27 11:49:00,
2015-02-27 05:54:00,25.9,25.7,30.06,East,90,4.6,4.6,99,0.00,CLR,,0.00,WeatherDisplay:10.37,2015-02-27 11:54:00,
2015-02-27 05:59:00,25.9,25.7,30.06,East,90,5.8,5.8,99,0.00,CLR,,0.00,WeatherDisplay:10.37,2015-02-27 11:59:00,
2015-02-27 06:04:00,25.9,25.7,30.06,East,90,4.6,4.6,99,0.00,CLR,,0.00,WeatherDisplay:10.37,2015-02-27 12:04:00,
2015-02-27 06:09:00,25.7,25.5,30.06,East,90,6.9,6.9,99,0.00,CLR,,0.00,WeatherDisplay:10.37,2015-02-27 12:09:00,
2015-02-27 06:14:00,25.7,25.5,30.06,East,90,5.8,5.8,99,0.00,CLR,,0.00,WeatherDisplay:10.37,2015-02-27 12:14:00,
2015-02-27 06:19:00,25.7,25.5,30.06,East,90,6.9,6.9,99,0.00,CLR,,0.00,WeatherDisplay:10.37,2015-02-27 12:19:00,
2015-02-27 06:24:00,25.7,25.5,30.06,East,90,4.6,4.7,99,0.00,CLR,,0.00,WeatherDisplay:10.37,2015-02-27 12:24:00,
2015-02-27 06:30:00,25.7,25.5,30.06,East,90,8.8,8.8,99,0.00,CLR,,0.00,WeatherDisplay:10.37,2015-02-27 12:30:00,
2015-02-27 06:35:00,25.5,25.3,30.06,East,90,5.8,5.8,99,0.00,CLR,,0.00,WeatherDisplay:10.37,2015-02-27 12:35:00,
2015-02-27 06:40:00,25.5,25.3,30.06,East,90,5.8,5.8,99,0.00,CLR,,0.00,WeatherDisplay:10.37,2015-02-27 12:40:00,
2015-02-27 06:45:00,25.5,25.3,30.06,East,90,5.8,5.8,99,0.00,CLR,,0.00,WeatherDisplay:10.37,2015-02-27 12:45:00,
2015-02-27 06:50:00,25.5,25.3,30.06,East,90,5.0,6.0,99,0.00,CLR,,0.00,WeatherDisplay:10.37,2015-02-27 12:50:00,
2015-02-27 06:55:00,25.5,25.3,30.06,ENE,68,5.8,5.8,99,0.00,CLR,,0.00,WeatherDisplay:10.37,2015-02-27 12:55:00,
2015-02-27 07:00:00,25.5,25.3,30.06,East,87,5.0,8.0,99,0.00,CLR,,0.00,WeatherDisplay:10.37,2015-02-27 13:00:00,
2015-02-27 07:05:00,25.5,25.3,30.06,ENE,68,4.6,4.9,99,0.00,CLR,,0.00,WeatherDisplay:10.37,2015-02-27 13:05:00,
2015-02-27 07:10:00,25.5,25.3,30.06,ENE,74,3.0,9.0,99,0.00,CLR,,0.00,WeatherDisplay:10.37,2015-02-27 13:10:00,
2015-02-27 07:15:00,25.5,25.3,30.06,ENE,68,5.8,5.8,99,0.00,CLR,,0.00,WeatherDisplay:10.37,2015-02-27 13:15:00,
2015-02-27 07:20:00,25.5,25.3,30.06,ENE,68,5.0,8.0,99,0.00,CLR,,0.00,WeatherDisplay:10.37,2015-02-27 13:20:00,
2015-02-27 07:25:00,25.7,25.5,30.06,ENE,68,5.8,5.8,99,0.00,CLR,,0.00,WeatherDisplay:10.37,2015-02-27 13:25:00,
2015-02-27 07:30:00,25.7,25.5,30.06,ENE,68,5.0,8.0,99,0.00,CLR,,0.00,WeatherDisplay:10.37,2015-02-27 13:30:00,
2015-02-27 07:34:00,25.7,25.5,30.06,ENE,68,4.7,4.7,99,0.00,CLR,,0.00,WeatherDisplay:10.37,2015-02-27 13:34:00,
2015-02-27 07:40:00,25.9,25.7,30.06,ENE,68,5.3,5.3,99,0.00,CLR,,0.00,WeatherDisplay:10.37,2015-02-27 13:40:00,
2015-02-27 07:44:00,26.1,25.9,30.06,ENE,68,3.5,3.9,99,0.00,CLR,,0.00,WeatherDisplay:10.37,2015-02-27 13:44:00,
2015-02-27 07:50:00,26.1,25.9,30.06,ENE,68,4.6,4.6,99,0.00,CLR,,0.00,WeatherDisplay:10.37,2015-02-27 13:50:00,
2015-02-27 07:55:00,26.1,25.9,30.06,ENE,68,6.9,6.9,99,0.00,CLR,,0.00,WeatherDisplay:10.37,2015-02-27 13:55:00,
2015-02-27 08:00:00,26.2,26.0,30.06,ENE,68,5.0,7.0,99,0.00,CLR,,0.00,WeatherDisplay:10.37,2015-02-27 14:00:00,
2015-02-27 08:05:00,26.2,26.0,30.06,ENE,68,4.6,5.0,99,0.00,CLR,,0.00,WeatherDisplay:10.37,2015-02-27 14:05:00,
2015-02-27 08:10:00,26.4,26.1,30.06,ENE,68,3.0,7.0,99,0.00,CLR,,0.00,WeatherDisplay:10.37,2015-02-27 14:10:00,
2015-02-27 08:14:00,26.6,26.4,30.06,ENE,68,5.8,5.8,99,0.00,CLR,,0.00,WeatherDisplay:10.37,2015-02-27 14:14:00,
2015-02-27 08:20:00,26.6,26.4,30.06,ENE,68,5.8,5.8,99,0.00,CLR,,0.00,WeatherDisplay:10.37,2015-02-27 14:20:00,
2015-02-27 08:25:00,26.8,26.6,30.06,ENE,68,4.6,4.6,99,0.00,CLR,,0.00,WeatherDisplay:10.37,2015-02-27 14:25:00,
2015-02-27 08:30:00,26.8,26.6,30.06,ENE,68,3.0,6.0,99,0.00,CLR,,0.00,WeatherDisplay:10.37,2015-02-27 14:30:00,
2015-02-27 08:35:00,26.8,26.6,30.06,ENE,68,6.9,6.9,99,0.00,CLR,,0.00,WeatherDisplay:10.37,2015-02-27 14:35:00,
2015-02-27 08:40:00,26.8,26.6,30.06,ENE,68,6.0,9.0,99,0.00,CLR,,0.00,WeatherDisplay:10.37,2015-02-27 14:40:00,
2015-02-27 08:45:00,27.0,26.8,30.06,ENE,68,4.6,4.6,99,0.00,CLR,,0.00,WeatherDisplay:10.37,2015-02-27 14:45:00,
2015-02-27 08:50:00,27.1,26.9,30.06,ENE,68,6.9,6.9,99,0.00,CLR,,0.00,WeatherDisplay:10.37,2015-02-27 14:50:00,
2015-02-27 08:55:00,27.1,26.9,30.06,ENE,68,5.8,5.8,99,0.00,CLR,,0.00,WeatherDisplay:10.37,2015-02-27 14:55:00,
2015-02-27 09:00:00,27.1,26.9,30.06,ENE,68,5.0,8.0,99,0.00,CLR,,0.00,WeatherDisplay:10.37,2015-02-27 15:00:00,
2015-02-27 09:05:00,27.3,27.1,30.06,ENE,68,4.6,4.6,99,0.00,CLR,,0.00,WeatherDisplay:10.37,2015-02-27 15:05:00,
2015-02-27 09:10:00,27.3,27.1,30.06,ENE,68,3.0,6.0,99,0.00,CLR,,0.00,WeatherDisplay:10.37,2015-02-27 15:10:00,
2015-02-27 09:15:00,27.1,26.9,30.06,ENE,68,4.6,4.6,99,0.00,CLR,,0.00,WeatherDisplay:10.37,2015-02-27 15:15:00,
2015-02-27 09:20:00,26.7,26.4,30.06,ENE,68,5.0,7.0,99,0.00,CLR,,0.00,WeatherDisplay:10.37,2015-02-27 15:20:00,
2015-02-27 09:25:00,26.2,26.0,30.06,ENE,68,5.8,5.8,99,0.00,CLR,,0.00,WeatherDisplay:10.37,2015-02-27 15:25:00,
2015-02-27 09:30:00,26.1,25.9,30.06,ENE,74,5.0,7.0,99,0.00,CLR,,0.00,WeatherDisplay:10.37,2015-02-27 15:30:00,
2015-02-27 09:35:00,26.1,25.9,30.06,East,90,4.6,4.6,99,0.00,CLR,,0.00,WeatherDisplay:10.37,2015-02-27 15:35:00,
2015-02-27 09:40:00,26.1,25.9,30.06,East,90,3.0,6.0,99,0.00,CLR,,0.00,WeatherDisplay:10.37,2015-02-27 15:40:00,
2015-02-27 09:45:00,26.2,26.0,30.06,East,90,5.8,5.8,99,0.00,CLR,,0.00,WeatherDisplay:10.37,2015-02-27 15:45:00,
2015-02-27 09:50:00,26.4,26.2,30.06,East,90,4.6,4.6,99,0.00,CLR,,0.00,WeatherDisplay:10.37,2015-02-27 15:50:00,
2015-02-27 09:55:00,26.8,26.6,30.06,East,90,3.5,3.6,99,0.00,CLR,,0.00,WeatherDisplay:10.37,2015-02-27 15:55:00,
2015-02-27 10:00:00,27.1,26.9,30.06,East,90,3.0,7.0,99,0.00,CLR,,0.00,WeatherDisplay:10.37,2015-02-27 16:00:00,
2015-02-27 10:04:00,27.1,26.9,30.06,East,90,3.5,3.5,99,0.00,CLR,,0.00,WeatherDisplay:10.37,2015-02-27 16:04:00,
2015-02-27 10:10:00,27.1,26.9,30.06,East,90,4.2,4.2,99,0.00,CLR,,0.00,WeatherDisplay:10.37,2015-02-27 16:10:00,
2015-02-27 10:15:00,27.1,26.9,30.06,East,90,4.2,4.2,99,0.00,CLR,,0.00,WeatherDisplay:10.37,2015-02-27 16:15:00,
2015-02-27 10:20:00,27.1,26.9,30.06,East,90,5.8,5.8,99,0.00,CLR,,0.00,WeatherDisplay:10.37,2015-02-27 16:20:00,
2015-02-27 10:25:00,27.1,26.9,30.06,East,90,3.7,3.7,99,0.00,CLR,,0.00,WeatherDisplay:10.37,2015-02-27 16:25:00,
2015-02-27 10:30:00,27.0,26.8,30.06,East,90,5.8,5.8,99,0.00,CLR,,0.00,WeatherDisplay:10.37,2015-02-27 16:30:00,
2015-02-27 10:35:00,27.1,26.9,30.06,East,90,5.8,5.8,99,0.00,CLR,,0.00,WeatherDisplay:10.37,2015-02-27 16:35:00,
2015-02-27 10:40:00,27.1,26.9,30.06,East,90,6.9,6.9,99,0.00,CLR,,0.00,WeatherDisplay:10.37,2015-02-27 16:40:00,
2015-02-27 10:45:00,27.7,27.5,30.06,East,90,3.7,3.7,99,0.00,CLR,,0.00,WeatherDisplay:10.37,2015-02-27 16:45:00,
2015-02-27 10:50:00,27.9,27.7,30.06,East,90,3.5,3.5,99,0.00,CLR,,0.00,WeatherDisplay:10.37,2015-02-27 16:50:00,
2015-02-27 10:55:00,27.9,27.7,30.06,East,90,3.5,3.5,99,0.00,CLR,,0.00,WeatherDisplay:10.37,2015-02-27 16:55:00,
2015-02-27 11:00:00,27.9,27.7,30.06,East,90,5.8,5.8,99,0.00,CLR,,0.00,WeatherDisplay:10.37,2015-02-27 17:00:00,
2015-02-27 11:05:00,27.3,27.1,30.06,East,90,4.6,4.6,99,0.00,CLR,,0.00,WeatherDisplay:10.37,2015-02-27 17:05:00,
2015-02-27 11:10:00,26.8,26.6,30.06,East,90,3.7,3.7,99,0.00,CLR,,0.00,WeatherDisplay:10.37,2015-02-27 17:10:00,
2015-02-27 11:15:00,27.0,26.8,30.06,East,90,4.6,4.6,99,0.00,CLR,,0.00,WeatherDisplay:10.37,2015-02-27 17:15:00,
2015-02-27 11:20:00,26.8,26.6,30.06,East,90,5.8,5.8,99,0.00,CLR,,0.00,WeatherDisplay:10.37,2015-02-27 17:20:00,
2015-02-27 11:25:00,26.6,26.4,30.06,East,90,5.8,5.8,99,0.00,CLR,,0.00,WeatherDisplay:10.37,2015-02-27 17:25:00,
2015-02-27 11:30:00,26.6,26.4,30.06,East,90,5.8,5.8,99,0.00,CLR,,0.00,WeatherDisplay:10.37,2015-02-27 17:30:00,
2015-02-27 11:35:00,26.6,26.4,30.06,East,90,5.8,5.8,99,0.00,CLR,,0.00,WeatherDisplay:10.37,2015-02-27 17:35:00,
2015-02-27 11:40:00,26.8,26.6,30.06,East,90,5.8,5.8,99,0.00,CLR,,0.00,WeatherDisplay:10.37,2015-02-27 17:40:00,
2015-02-27 11:45:00,27.1,26.9,30.06,East,90,4.6,4.6,99,0.00,CLR,,0.00,WeatherDisplay:10.37,2015-02-27 17:45:00,
2015-02-27 11:50:00,27.0,26.8,30.06,East,90,5.8,5.8,99,0.00,CLR,,0.00,WeatherDisplay:10.37,2015-02-27 17:50:00,
2015-02-27 11:55:00,27.1,26.9,30.06,East,90,5.8,5.8,99,0.00,CLR,,0.00,WeatherDisplay:10.37,2015-02-27 17:55:00,
2015-02-27 12:00:00,27.1,26.9,30.06,East,90,5.8,5.8,99,0.00,CLR,,0.00,WeatherDisplay:10.37,2015-02-27 18:00:00,
2015-02-27 12:05:00,28.0,27.8,30.06,East,90,4.6,4.6,99,0.00,CLR,,0.00,WeatherDisplay:10.37,2015-02-27 18:05:00,
2015-02-27 12:10:00,27.7,27.5,30.06,East,90,4.6,4.6,99,0.00,CLR,,0.00,WeatherDisplay:10.37,2015-02-27 18:10:00,
2015-02-27 12:15:00,28.0,27.8,30.06,East,90,4.6,4.6,99,0.00,CLR,,0.00,WeatherDisplay:10.37,2015-02-27 18:15:00,
2015-02-27 12:20:00,27.7,27.5,30.06,East,90,4.7,4.7,99,0.00,CLR,,0.00,WeatherDisplay:10.37,2015-02-27 18:20:00,
2015-02-27 12:25:00,27.5,27.3,30.06,East,90,5.8,5.8,99,0.00,CLR,,0.00,WeatherDisplay:10.37,2015-02-27 18:25:00,
2015-02-27 12:30:00,27.9,27.7,30.06,East,90,3.5,3.5,99,0.00,CLR,,0.00,WeatherDisplay:10.37,2015-02-27 18:30:00,
2015-02-27 12:35:00,27.9,27.7,30.06,East,90,4.6,4.6,99,0.00,CLR,,0.00,WeatherDisplay:10.37,2015-02-27 18:35:00,
2015-02-27 12:40:00,27.9,27.7,30.06,East,90,5.3,5.3,99,0.00,CLR,,0.00,WeatherDisplay:10.37,2015-02-27 18:40:00,
2015-02-27 12:45:00,28.0,27.8,30.06,East,90,5.8,5.8,99,0.00,CLR,,0.00,WeatherDisplay:10.37,2015-02-27 18:45:00,
2015-02-27 12:50:00,28.2,28.0,30.06,East,90,4.6,4.6,99,0.00,CLR,,0.00,WeatherDisplay:10.37,2015-02-27 18:50:00,
2015-02-27 12:55:00,28.6,28.4,30.06,East,90,4.6,4.6,99,0.00,CLR,,0.00,WeatherDisplay:10.37,2015-02-27 18:55:00,
2015-02-27 13:00:00,29.1,28.9,30.06,East,90,4.6,4.6,99,0.00,CLR,,0.00,WeatherDisplay:10.37,2015-02-27 19:00:00,
2015-02-27 13:05:00,28.9,28.7,30.06,East,90,5.8,5.8,99,0.00,CLR,,0.00,WeatherDisplay:10.37,2015-02-27 19:05:00,
2015-02-27 13:10:00,28.6,28.4,30.06,East,90,4.6,4.6,99,0.00,CLR,,0.00,WeatherDisplay:10.37,2015-02-27 19:10:00,
2015-02-27 13:15:00,28.4,28.2,30.06,East,90,5.8,5.8,99,0.00,CLR,,0.00,WeatherDisplay:10.37,2015-02-27 19:15:00,
2015-02-27 13:20:00,28.2,28.0,30.06,East,90,5.8,5.8,99,0.00,CLR,,0.00,WeatherDisplay:10.37,2015-02-27 19:20:00,
2015-02-27 13:25:00,28.2,28.0,30.06,East,90,6.9,6.9,99,0.00,CLR,,0.00,WeatherDisplay:10.37,2015-02-27 19:25:00,
2015-02-27 13:30:00,28.2,28.0,30.06,East,90,5.8,5.8,99,0.00,CLR,,0.00,WeatherDisplay:10.37,2015-02-27 19:30:00,
2015-02-27 13:35:00,28.6,28.4,30.06,East,90,4.7,4.7,99,0.00,CLR,,0.00,WeatherDisplay:10.37,2015-02-27 19:35:00,
2015-02-27 13:40:00,28.4,28.2,30.06,East,90,5.8,5.8,99,0.00,CLR,,0.00,WeatherDisplay:10.37,2015-02-27 19:40:00,
2015-02-27 13:45:00,28.4,28.2,30.06,East,90,8.1,8.1,99,0.00,CLR,,0.00,WeatherDisplay:10.37,2015-02-27 19:45:00,
2015-02-27 13:50:00,28.9,28.7,30.06,East,90,7.3,7.3,99,0.00,CLR,,0.00,WeatherDisplay:10.37,2015-02-27 19:50:00,
2015-02-27 13:55:00,29.5,29.3,30.06,East,90,5.8,5.8,99,0.00,CLR,,0.00,WeatherDisplay:10.37,2015-02-27 19:55:00,
2015-02-27 14:00:00,29.5,29.3,30.06,East,90,6.9,6.9,99,0.00,CLR,,0.00,WeatherDisplay:10.37,2015-02-27 20:00:00,
2015-02-27 14:05:00,30.4,30.2,30.06,East,90,4.7,4.7,99,0.00,CLR,,0.00,WeatherDisplay:10.37,2015-02-27 20:05:00,
2015-02-27 14:10:00,30.0,29.8,30.06,East,90,6.3,6.3,99,0.00,CLR,,0.00,WeatherDisplay:10.37,2015-02-27 20:10:00,
2015-02-27 14:15:00,30.0,29.8,30.06,East,90,5.8,5.8,99,0.00,CLR,,0.00,WeatherDisplay:10.37,2015-02-27 20:15:00,
2015-02-27 14:20:00,30.4,30.2,30.06,East,90,4.6,4.6,99,0.00,CLR,,0.00,WeatherDisplay:10.37,2015-02-27 20:20:00,
2015-02-27 14:25:00,30.0,29.8,30.06,East,90,5.8,5.8,99,0.00,CLR,,0.00,WeatherDisplay:10.37,2015-02-27 20:25:00,
2015-02-27 14:30:00,30.4,30.2,30.06,East,90,4.6,4.6,99,0.00,CLR,,0.00,WeatherDisplay:10.37,2015-02-27 20:30:00,
2015-02-27 14:35:00,29.8,29.6,30.06,East,90,6.9,6.9,99,0.00,CLR,,0.00,WeatherDisplay:10.37,2015-02-27 20:35:00,
2015-02-27 14:40:00,29.7,29.5,30.06,East,90,5.8,5.8,99,0.00,CLR,,0.00,WeatherDisplay:10.37,2015-02-27 20:40:00,
2015-02-27 14:45:00,29.3,29.1,30.06,East,90,6.9,6.9,99,0.00,CLR,,0.00,WeatherDisplay:10.37,2015-02-27 20:45:00,
2015-02-27 14:50:00,29.7,29.5,30.06,East,90,8.3,8.3,99,0.00,CLR,,0.00,WeatherDisplay:10.37,2015-02-27 20:50:00,
2015-02-27 14:55:00,30.0,29.8,30.06,East,90,4.6,4.6,99,0.00,CLR,,0.00,WeatherDisplay:10.37,2015-02-27 20:55:00,
2015-02-27 15:00:00,29.5,29.3,30.06,East,90,9.2,9.2,99,0.00,CLR,,0.00,WeatherDisplay:10.37,2015-02-27 21:00:00,
2015-02-27 15:05:00,30.6,30.4,30.06,East,90,5.8,5.8,99,0.00,CLR,,0.00,WeatherDisplay:10.37,2015-02-27 21:05:00,
2015-02-27 15:10:00,30.2,30.0,30.06,East,90,5.8,5.8,99,0.00,CLR,,0.00,WeatherDisplay:10.37,2015-02-27 21:10:00,
2015-02-27 15:15:00,29.8,29.6,30.06,East,90,5.8,5.8,99,0.00,CLR,,0.00,WeatherDisplay:10.37,2015-02-27 21:15:00,
2015-02-27 15:20:00,30.4,30.2,30.06,East,90,3.5,3.5,99,0.00,CLR,,0.00,WeatherDisplay:10.37,2015-02-27 21:20:00,
2015-02-27 15:25:00,29.8,29.6,30.06,East,90,6.9,6.9,99,0.00,CLR,,0.00,WeatherDisplay:10.37,2015-02-27 21:25:00,
2015-02-27 15:30:00,29.7,29.5,30.06,East,90,6.8,6.8,99,0.00,CLR,,0.00,WeatherDisplay:10.37,2015-02-27 21:30:00,
2015-02-27 15:35:00,29.8,29.6,30.06,East,90,6.3,6.3,99,0.00,CLR,,0.00,WeatherDisplay:10.37,2015-02-27 21:35:00,
2015-02-27 15:40:00,29.7,29.5,30.06,East,90,5.8,5.8,99,0.00,CLR,,0.00,WeatherDisplay:10.37,2015-02-27 21:40:00,
2015-02-27 15:46:00,29.3,29.1,30.06,East,90,6.9,6.9,99,0.00,CLR,,0.00,WeatherDisplay:10.37,2015-02-27 21:46:00,
2015-02-27 15:51:00,29.8,29.6,30.06,East,90,3.7,3.7,99,0.00,CLR,,0.00,WeatherDisplay:10.37,2015-02-27 21:51:00,
2015-02-27 15:56:00,29.5,29.3,30.06,East,90,5.8,5.8,99,0.00,CLR,,0.00,WeatherDisplay:10.37,2015-02-27 21:56:00,
2015-02-27 16:01:00,29.7,29.5,30.06,East,90,5.8,5.8,99,0.00,CLR,,0.00,WeatherDisplay:10.37,2015-02-27 22:01:00,
2015-02-27 16:06:00,29.1,28.9,30.06,East,90,4.6,4.6,99,0.00,CLR,,0.00,WeatherDisplay:10.37,2015-02-27 22:06:00,
2015-02-27 16:11:00,29.5,29.3,30.06,East,90,4.2,4.2,99,0.00,CLR,,0.00,WeatherDisplay:10.37,2015-02-27 22:11:00,
2015-02-27 16:16:00,28.9,28.7,30.06,East,90,4.7,4.7,99,0.00,CLR,,0.00,WeatherDisplay:10.37,2015-02-27 22:16:00,
2015-02-27 16:21:00,28.6,28.4,30.06,East,90,4.6,4.6,99,0.00,CLR,,0.00,WeatherDisplay:10.37,2015-02-27 22:21:00,
2015-02-27 16:26:00,28.4,28.2,30.06,East,90,4.6,4.6,99,0.00,CLR,,0.00,WeatherDisplay:10.37,2015-02-27 22:26:00,
2015-02-27 16:31:00,28.4,28.2,30.06,East,90,4.6,4.6,99,0.00,CLR,,0.00,WeatherDisplay:10.37,2015-02-27 22:31:00,
2015-02-27 16:36:00,28.6,28.4,30.06,East,90,5.8,5.8,99,0.00,CLR,,0.00,WeatherDisplay:10.37,2015-02-27 22:36:00,
2015-02-27 16:41:00,28.2,28.0,30.06,East,90,5.8,5.8,99,0.00,CLR,,0.00,WeatherDisplay:10.37,2015-02-27 22:41:00,
2015-02-27 16:46:00,28.0,27.8,30.06,East,90,5.8,5.8,99,0.00,CLR,,0.00,WeatherDisplay:10.37,2015-02-27 22:46:00,
2015-02-27 16:51:00,27.7,27.5,30.06,East,90,5.8,5.8,99,0.00,CLR,,0.00,WeatherDisplay:10.37,2015-02-27 22:51:00,
2015-02-27 16:56:00,27.9,27.7,30.06,East,90,5.8,5.8,99,0.00,CLR,,0.00,WeatherDisplay:10.37,2015-02-27 22:56:00,
2015-02-27 17:01:00,27.5,27.3,30.06,East,90,4.6,4.6,99,0.00,CLR,,0.00,WeatherDisplay:10.37,2015-02-27 23:01:00,
2015-02-27 17:06:00,27.5,27.3,30.06,East,90,5.8,5.8,99,0.00,CLR,,0.00,WeatherDisplay:10.37,2015-02-27 23:06:00,
2015-02-27 17:11:00,27.7,27.5,30.06,East,90,6.9,6.9,99,0.00,CLR,,0.00,WeatherDisplay:10.37,2015-02-27 23:11:00,
2015-02-27 17:16:00,27.5,27.3,30.06,East,90,4.7,4.7,99,0.00,CLR,,0.00,WeatherDisplay:10.37,2015-02-27 23:16:00,
2015-02-27 17:21:00,27.5,27.3,30.06,East,90,5.3,5.3,99,0.00,CLR,,0.00,WeatherDisplay:10.37,2015-02-27 23:21:00,
2015-02-27 17:26:00,27.5,27.3,30.06,East,90,5.8,5.8,99,0.00,CLR,,0.00,WeatherDisplay:10.37,2015-02-27 23:26:00,
2015-02-27 17:31:00,27.3,27.1,30.06,East,90,3.7,3.7,99,0.00,CLR,,0.00,WeatherDisplay:10.37,2015-02-27 23:31:00,
2015-02-27 17:36:00,27.3,27.1,30.06,East,90,5.8,5.8,99,0.00,CLR,,0.00,WeatherDisplay:10.37,2015-02-27 23:36:00,
2015-02-27 17:41:00,27.3,27.1,30.06,East,90,5.8,5.8,99,0.00,CLR,,0.00,WeatherDisplay:10.37,2015-02-27 23:41:00,
2015-02-27 17:46:00,27.1,26.9,30.06,East,90,5.8,5.8,99,0.00,CLR,,0.00,WeatherDisplay:10.37,2015-02-27 23:46:00,
2015-02-27 17:51:00,27.1,26.9,30.06,East,90,5.8,5.8,99,0.00,CLR,,0.00,WeatherDisplay:10.37,2015-02-27 23:51:00,
2015-02-27 17:56:00,27.0,26.8,30.06,East,90,4.6,4.6,99,0.00,CLR,,0.00,WeatherDisplay:10.37,2015-02-27 23:56:00,
2015-02-27 18:01:00,27.0,26.8,30.06,East,90,4.2,4.2,99,0.00,CLR,,0.00,WeatherDisplay:10.37,2015-02-28 00:01:00,
2015-02-27 18:06:00,27.3,27.1,30.06,East,90,5.8,5.8,99,0.00,CLR,,0.00,WeatherDisplay:10.37,2015-02-28 00:06:00,
2015-02-27 18:11:00,26.6,26.4,30.06,East,90,6.3,6.3,99,0.00,CLR,,0.00,WeatherDisplay:10.37,2015-02-28 00:11:00,
2015-02-27 18:16:00,26.6,26.4,30.06,East,90,6.9,6.9,99,0.00,CLR,,0.00,WeatherDisplay:10.37,2015-02-28 00:16:00,
2015-02-27 18:21:00,26.6,26.4,30.06,East,90,5.8,5.8,99,0.00,CLR,,0.00,WeatherDisplay:10.37,2015-02-28 00:21:00,
2015-02-27 18:26:00,26.6,26.4,30.06,East,90,5.8,5.8,99,0.00,CLR,,0.00,WeatherDisplay:10.37,2015-02-28 00:26:00,
2015-02-27 18:32:00,26.6,26.4,30.06,East,90,4.6,4.6,99,0.00,CLR,,0.00,WeatherDisplay:10.37,2015-02-28 00:32:00,
2015-02-27 18:37:00,26.6,26.4,30.06,East,90,2.3,4.0,99,0.00,CLR,,0.00,WeatherDisplay:10.37,2015-02-28 00:37:00,
2015-02-27 18:42:00,26.6,26.4,30.06,East,90,3.5,3.5,99,0.00,CLR,,0.00,WeatherDisplay:10.37,2015-02-28 00:42:00,
2015-02-27 18:47:00,26.6,26.4,30.06,East,90,4.7,4.7,99,0.00,CLR,,0.00,WeatherDisplay:10.37,2015-02-28 00:47:00,
2015-02-27 18:52:00,26.6,26.4,30.06,East,90,8.1,8.1,99,0.00,CLR,,0.00,WeatherDisplay:10.37,2015-02-28 00:52:00,
2015-02-27 18:57:00,26.4,26.2,30.06,East,90,6.9,6.9,99,0.00,CLR,,0.00,WeatherDisplay:10.37,2015-02-28 00:57:00,
2015-02-27 19:02:00,26.4,26.2,30.06,East,90,5.8,5.8,99,0.00,CLR,,0.00,WeatherDisplay:10.37,2015-02-28 01:02:00,
2015-02-27 19:07:00,26.4,26.2,30.06,East,90,4.6,4.6,99,0.00,CLR,,0.00,WeatherDisplay:10.37,2015-02-28 01:07:00,
2015-02-27 19:12:00,26.4,26.2,30.06,East,90,5.8,5.8,99,0.00,CLR,,0.00,WeatherDisplay:10.37,2015-02-28 01:12:00,
2015-02-27 19:17:00,26.4,26.2,30.06,East,90,5.8,5.8,99,0.00,CLR,,0.00,WeatherDisplay:10.37,2015-02-28 01:17:00,
2015-02-27 19:22:00,26.4,26.2,30.06,East,90,4.6,4.6,99,0.00,CLR,,0.00,WeatherDisplay:10.37,2015-02-28 01:22:00,
2015-02-27 19:27:00,26.4,26.2,30.06,East,90,3.5,3.5,99,0.00,CLR,,0.00,WeatherDisplay:10.37,2015-02-28 01:27:00,
2015-02-27 19:32:00,26.4,26.2,30.06,East,90,3.5,3.5,99,0.00,CLR,,0.00,WeatherDisplay:10.37,2015-02-28 01:32:00,
2015-02-27 19:37:00,26.4,26.2,30.06,East,90,5.8,5.8,99,0.00,CLR,,0.00,WeatherDisplay:10.37,2015-02-28 01:37:00,
2015-02-27 19:42:00,26.4,26.2,30.06,East,90,5.8,5.8,99,0.00,CLR,,0.00,WeatherDisplay:10.37,2015-02-28 01:42:00,